Terminal Aerodrome Forecast
Issued by NWS

Home | Current Version | Previous Version | Text Only | Print | Product List | Glossary On
Versions: 1 2 3 4 5 6 7 8 9 10 11 12 13 14
000
FTUS43 KBIS 201720
TAFJMS
TAF
KJMS 201720Z 2018/2118 18018G26KT P6SM FEW250
     FM210000 20015KT P6SM FEW250 WS020/18040KT
     FM211000 24013KT P6SM FEW200
     FM211400 29015G23KT P6SM BKN200 WS020/28020KT=

USA.gov is the U.S. government's official web portal to all federal, state and local government web resources and services.